Time;durP1;ratioP1;P1;durP2;ratioP2;P2;SDS_P1;SDS_P2;PMS_P1;PMS_P2;Temp;Humidity;BMP_temperature;BMP_pressure;BME280_temperature;BME280_humidity;BME280_pressure;Samples;Min_cycle;Max_cycle;Signal;HPM_P1;HPM_P2
2023/09/08 00:01:20;;;;;;;4.47;3.80;;;16.90;99.90;;;;;;5071557;28;20165;-84
2023/09/08 00:03:46;;;;;;;4.37;3.77;;;16.90;1.00;;;;;;5073761;28;20166;-85
2023/09/08 00:06:12;;;;;;;4.50;4.10;;;16.90;1.00;;;;;;5073323;28;20544;-86
2023/09/08 00:08:37;;;;;;;4.90;4.00;;;16.90;1.00;;;;;;5074325;28;20182;-86
2023/09/08 00:11:04;;;;;;;5.23;3.80;;;16.90;1.00;;;;;;5071376;28;20194;-83
2023/09/08 00:13:30;;;;;;;5.87;3.87;;;16.80;1.00;;;;;;5060657;28;20170;-83
2023/09/08 00:15:55;;;;;;;3.73;3.43;;;16.80;99.90;;;;;;5060081;28;20197;-84
2023/09/08 00:18:21;;;;;;;3.97;3.57;;;16.70;1.00;;;;;;5061808;28;20228;-83
2023/09/08 00:20:47;;;;;;;4.30;3.73;;;16.60;1.00;;;;;;5059380;28;20208;-83
2023/09/08 00:23:12;;;;;;;5.37;3.90;;;16.60;1.00;;;;;;5062306;28;20181;-85
2023/09/08 00:25:38;;;;;;;4.23;3.63;;;16.60;1.00;;;;;;5060941;28;20202;-85
2023/09/08 00:28:04;;;;;;;5.33;3.40;;;16.60;1.00;;;;;;5062159;28;20319;-83
2023/09/08 00:30:29;;;;;;;4.97;3.73;;;16.40;99.90;;;;;;5059390;28;20198;-83
2023/09/08 00:32:55;;;;;;;4.50;3.60;;;16.40;1.00;;;;;;5061659;28;20170;-83
2023/09/08 00:35:20;;;;;;;3.93;3.57;;;16.50;1.00;;;;;;5061859;28;20245;-84
2023/09/08 00:37:46;;;;;;;5.60;4.10;;;16.60;1.00;;;;;;5061858;28;20166;-83
2023/09/08 00:40:11;;;;;;;4.10;3.60;;;16.50;99.90;;;;;;5058541;28;20204;-83
2023/09/08 00:42:37;;;;;;;5.10;3.97;;;16.50;1.00;;;;;;5062740;28;20174;-83
2023/09/08 00:45:04;;;;;;;4.40;4.00;;;16.50;1.00;;;;;;5059623;28;20602;-86
2023/09/08 00:47:29;;;;;;;4.40;3.70;;;16.50;1.00;;;;;;5061745;28;20184;-83
2023/09/08 00:49:55;;;;;;;4.77;3.33;;;16.40;1.00;;;;;;5060943;28;20198;-85
2023/09/08 00:52:21;;;;;;;5.57;3.60;;;16.30;99.90;;;;;;5059500;28;20260;-83
2023/09/08 00:54:47;;;;;;;4.13;3.83;;;16.20;1.00;;;;;;5059440;28;20257;-83
2023/09/08 00:57:12;;;;;;;5.30;4.10;;;16.00;1.00;;;;;;5060708;28;20261;-83
2023/09/08 00:59:38;;;;;;;5.67;3.80;;;15.80;32.00;;;;;;5060382;28;20220;-82
2023/09/08 01:02:04;;;;;;;4.47;4.07;;;15.80;98.60;;;;;;5058974;28;20170;-84
2023/09/08 01:04:30;;;;;;;4.23;3.83;;;15.80;99.90;;;;;;5061105;28;20232;-83
2023/09/08 01:06:56;;;;;;;4.47;3.90;;;15.70;99.90;;;;;;5059431;28;20531;-83
2023/09/08 01:09:24;;;;;;;4.70;4.20;;;15.80;97.20;;;;;;5057755;28;20205;-84
2023/09/08 01:11:50;;;;;;;4.60;3.57;;;15.90;37.10;;;;;;5061173;28;20165;-83
2023/09/08 01:14:18;;;;;;;6.40;3.90;;;16.00;1.00;;;;;;5058459;28;20197;-83
2023/09/08 01:16:44;;;;;;;4.77;4.27;;;15.90;1.00;;;;;;5061274;28;20223;-83
2023/09/08 01:19:13;;;;;;;5.83;4.50;;;15.90;1.00;;;;;;5061082;28;20169;-83
2023/09/08 01:22:03;;;;;;;4.73;3.97;;;16.00;1.00;;;;;;5058618;28;20180;-84
2023/09/08 01:24:56;;;;;;;4.47;4.00;;;16.00;1.00;;;;;;5061112;28;20206;-85
2023/09/08 01:27:25;;;;;;;4.43;3.80;;;16.00;1.00;;;;;;5061490;28;20215;-83
2023/09/08 01:29:53;;;;;;;5.67;3.87;;;16.00;1.00;;;;;;5058207;28;20224;-83
2023/09/08 01:32:19;;;;;;;4.77;3.97;;;16.00;1.00;;;;;;5059417;28;20173;-83
2023/09/08 01:34:45;;;;;;;4.13;3.70;;;15.90;1.00;;;;;;5059502;28;20199;-85
2023/09/08 01:37:11;;;;;;;5.97;3.80;;;16.00;1.00;;;;;;5059590;28;20264;-83
2023/09/08 01:39:36;;;;;;;4.40;4.00;;;15.90;1.00;;;;;;5058878;28;20216;-80
2023/09/08 01:42:02;;;;;;;5.30;3.63;;;15.80;1.00;;;;;;5061080;28;20170;-83
2023/09/08 01:44:28;;;;;;;3.93;3.63;;;15.80;1.00;;;;;;5059076;28;20201;-83
2023/09/08 01:46:56;;;;;;;4.67;3.93;;;15.80;1.00;;;;;;5059041;28;20166;-84
2023/09/08 01:49:23;;;;;;;4.47;4.03;;;15.80;1.00;;;;;;5059135;28;20197;-84
2023/09/08 01:51:48;;;;;;;4.87;4.37;;;15.70;1.00;;;;;;5061213;28;20165;-82
2023/09/08 01:54:14;;;;;;;5.17;3.80;;;15.60;1.00;;;;;;5061889;28;20208;-83
2023/09/08 01:56:39;;;;;;;4.80;4.10;;;15.60;1.00;;;;;;5062773;28;20173;-83
2023/09/08 01:59:05;;;;;;;5.77;3.90;;;15.60;5.10;;;;;;5062756;28;20173;-83
2023/09/08 02:01:30;;;;;;;4.40;3.90;;;15.60;1.00;;;;;;5059179;28;20255;-83
2023/09/08 02:03:56;;;;;;;5.37;3.73;;;15.60;1.00;;;;;;5060435;28;20611;-85
2023/09/08 02:06:21;;;;;;;6.13;4.37;;;15.70;1.00;;;;;;5059766;28;20181;-83
2023/09/08 02:08:47;;;;;;;4.43;4.03;;;15.70;1.00;;;;;;5060988;28;20192;-82
2023/09/08 02:11:13;;;;;;;4.60;4.10;;;15.50;1.00;;;;;;5060687;28;20217;-83
2023/09/08 02:13:41;;;;;;;4.90;4.40;;;15.50;21.00;;;;;;5060574;28;20177;-85
2023/09/08 02:16:07;;;;;;;5.43;4.00;;;15.50;41.80;;;;;;5060164;28;20178;-86
2023/09/08 02:18:32;;;;;;;4.73;4.27;;;15.40;1.00;;;;;;5061014;28;20264;-85
2023/09/08 02:20:58;;;;;;;5.30;4.40;;;15.40;1.00;;;;;;5062188;28;20220;-83
2023/09/08 02:23:24;;;;;;;4.30;3.90;;;15.30;6.10;;;;;;5061374;28;20184;-83
2023/09/08 02:25:49;;;;;;;4.87;4.37;;;15.30;1.00;;;;;;5064166;28;20213;-85
2023/09/08 02:28:15;;;;;;;5.20;4.13;;;15.40;2.20;;;;;;5061969;28;20178;-85
2023/09/08 02:30:40;;;;;;;4.40;4.00;;;15.30;10.40;;;;;;5063138;28;20220;-83
2023/09/08 02:33:06;;;;;;;4.90;4.33;;;15.40;27.90;;;;;;5062048;28;20177;-83
2023/09/08 02:35:37;;;;;;;4.00;3.70;;;15.30;25.50;;;;;;5062422;28;20679;-85
2023/09/08 02:38:03;;;;;;;4.63;4.23;;;15.30;1.00;;;;;;5064510;28;20208;-84
2023/09/08 02:40:28;;;;;;;5.07;4.57;;;15.30;1.00;;;;;;5062784;28;20605;-83
2023/09/08 02:42:54;;;;;;;5.57;4.23;;;15.20;32.50;;;;;;5062721;28;20264;-83
2023/09/08 02:45:19;;;;;;;5.23;4.27;;;15.20;1.00;;;;;;5063522;28;20551;-85
2023/09/08 02:47:45;;;;;;;4.30;3.90;;;15.10;1.00;;;;;;5063111;28;20273;-84
2023/09/08 02:50:11;;;;;;;4.63;4.00;;;15.00;29.50;;;;;;5065255;28;20236;-83
2023/09/08 02:52:36;;;;;;;3.87;3.53;;;15.00;1.00;;;;;;5063610;28;20173;-87
2023/09/08 02:55:02;;;;;;;5.63;4.30;;;14.90;34.40;;;;;;5066289;28;20229;-85
2023/09/08 02:57:27;;;;;;;5.30;4.00;;;14.90;23.20;;;;;;5063842;28;20549;-84
2023/09/08 02:59:56;;;;;;;5.73;4.53;;;15.00;8.80;;;;;;5066898;28;20209;-82
2023/09/08 03:02:23;;;;;;;5.17;4.13;;;15.00;23.00;;;;;;5066325;28;20598;-83
2023/09/08 03:04:48;;;;;;;5.07;4.57;;;15.10;7.60;;;;;;5070316;28;20217;-83
2023/09/08 03:07:14;;;;;;;4.90;4.50;;;15.00;29.70;;;;;;5069024;28;20174;-84
2023/09/08 03:09:39;;;;;;;6.73;4.20;;;15.00;1.00;;;;;;5071769;28;20189;-85
2023/09/08 03:12:05;;;;;;;4.30;3.83;;;15.00;1.00;;;;;;5072258;28;20176;-86
2023/09/08 03:14:30;;;;;;;5.17;4.03;;;14.90;1.00;;;;;;5072392;28;20201;-83
2023/09/08 03:16:56;;;;;;;5.40;4.13;;;14.70;1.00;;;;;;5071442;28;20174;-83
2023/09/08 03:19:21;;;;;;;4.60;4.03;;;14.70;28.00;;;;;;5072151;28;20245;-83
2023/09/08 03:21:47;;;;;;;4.87;4.40;;;14.70;35.30;;;;;;5072356;28;20205;-86
2023/09/08 03:24:12;;;;;;;5.20;4.20;;;14.60;40.00;;;;;;5073510;28;20208;-83
2023/09/08 03:26:40;;;;;;;4.63;4.20;;;14.70;71.90;;;;;;5071932;28;20181;-83
2023/09/08 03:29:06;;;;;;;5.17;4.10;;;14.70;22.40;;;;;;5059622;28;20660;-85
2023/09/08 03:31:31;;;;;;;5.13;4.27;;;14.80;99.90;;;;;;5059429;28;20173;-83
2023/09/08 03:33:57;;;;;;;4.77;4.30;;;14.80;32.10;;;;;;5059945;28;20181;-83
2023/09/08 03:36:23;;;;;;;4.87;4.37;;;14.80;1.00;;;;;;5060996;28;20173;-83
2023/09/08 03:38:48;;;;;;;5.20;4.50;;;14.90;1.00;;;;;;5059712;28;20167;-85
2023/09/08 03:41:14;;;;;;;4.20;3.90;;;14.90;1.00;;;;;;5059238;28;20181;-83
2023/09/08 03:43:40;;;;;;;5.27;4.20;;;14.90;1.00;;;;;;5061200;28;20671;-86
2023/09/08 03:46:05;;;;;;;4.80;4.30;;;15.00;1.00;;;;;;5059100;28;20212;-83
2023/09/08 03:48:31;;;;;;;4.90;4.23;;;14.90;1.00;;;;;;5059663;28;20558;-83
2023/09/08 03:50:56;;;;;;;4.77;4.37;;;14.90;1.00;;;;;;5058920;28;20217;-83
2023/09/08 03:53:22;;;;;;;4.70;4.20;;;14.90;1.00;;;;;;5061465;28;20182;-83
2023/09/08 03:55:48;;;;;;;4.70;4.30;;;14.90;1.00;;;;;;5061198;28;20228;-83
2023/09/08 03:58:13;;;;;;;4.77;4.37;;;14.80;1.00;;;;;;5060802;28;20227;-83
2023/09/08 04:00:39;;;;;;;5.07;4.57;;;14.80;1.00;;;;;;5059975;28;20178;-83
2023/09/08 04:03:04;;;;;;;4.80;4.30;;;14.70;1.00;;;;;;5060928;28;20539;-83
2023/09/08 04:05:30;;;;;;;4.63;4.17;;;14.80;1.00;;;;;;5060402;28;20220;-82
2023/09/08 04:07:55;;;;;;;6.07;4.33;;;14.70;1.00;;;;;;5059442;28;20186;-83
2023/09/08 04:10:21;;;;;;;6.40;4.07;;;14.70;1.00;;;;;;5058980;28;20208;-85
2023/09/08 04:12:46;;;;;;;5.77;4.53;;;14.60;1.00;;;;;;5058711;28;20178;-83
2023/09/08 04:15:12;;;;;;;4.60;4.20;;;14.70;1.00;;;;;;5057620;28;20228;-84
2023/09/08 04:17:37;;;;;;;4.80;4.40;;;14.70;1.00;;;;;;5061156;28;20178;-85
2023/09/08 04:20:05;;;;;;;5.00;4.60;;;14.60;1.00;;;;;;5059239;28;20178;-83
2023/09/08 04:22:31;;;;;;;4.47;4.07;;;14.60;1.00;;;;;;5059431;28;20178;-83
2023/09/08 04:24:57;;;;;;;5.37;4.40;;;14.60;1.00;;;;;;5060183;28;20194;-83
2023/09/08 04:27:23;;;;;;;5.87;4.10;;;14.50;1.00;;;;;;5059157;28;20173;-83
2023/09/08 04:29:48;;;;;;;5.43;4.40;;;14.50;20.00;;;;;;5058685;28;20205;-83
2023/09/08 04:32:14;;;;;;;4.77;4.30;;;14.40;68.00;;;;;;5060800;28;20178;-83
2023/09/08 04:34:41;;;;;;;5.70;4.60;;;14.30;59.90;;;;;;5062257;28;20189;-83
2023/09/08 04:37:07;;;;;;;4.83;4.43;;;14.40;1.00;;;;;;5059020;28;20193;-83
2023/09/08 04:39:34;;;;;;;5.27;4.70;;;14.40;77.90;;;;;;5059590;28;20243;-83
2023/09/08 04:42:00;;;;;;;6.40;4.53;;;14.40;99.90;;;;;;5059396;28;20209;-83
2023/09/08 04:44:26;;;;;;;5.63;4.83;;;14.50;99.90;;;;;;5059040;28;20573;-83
2023/09/08 04:46:54;;;;;;;4.70;4.20;;;14.60;25.50;;;;;;5061896;28;20660;-83
2023/09/08 04:49:19;;;;;;;5.13;4.53;;;14.40;1.00;;;;;;5059540;28;20188;-83
2023/09/08 04:51:45;;;;;;;4.80;4.30;;;14.20;94.20;;;;;;5060492;28;20181;-84
2023/09/08 04:54:10;;;;;;;4.83;4.17;;;14.30;91.70;;;;;;5058837;28;20280;-83
2023/09/08 04:56:36;;;;;;;4.53;4.13;;;14.20;9.90;;;;;;5055309;28;20180;-81
2023/09/08 04:59:02;;;;;;;6.47;4.33;;;14.30;37.90;;;;;;5054779;28;20170;-81
2023/09/08 05:01:29;;;;;;;5.00;4.40;;;14.30;27.40;;;;;;5054862;28;20173;-82
2023/09/08 05:03:55;;;;;;;5.67;4.27;;;14.30;10.40;;;;;;5055508;28;20178;-81
2023/09/08 05:06:21;;;;;;;6.00;4.93;;;14.30;1.00;;;;;;5057083;28;20248;-83
2023/09/08 05:08:46;;;;;;;5.00;4.40;;;14.30;38.60;;;;;;5057059;28;20189;-82
2023/09/08 05:11:12;;;;;;;4.63;4.23;;;14.40;60.90;;;;;;5055994;28;20201;-83
2023/09/08 05:13:37;;;;;;;4.60;4.20;;;14.40;14.10;;;;;;5055842;28;20193;-83
2023/09/08 05:16:11;;;;;;;4.90;4.40;;;14.30;1.00;;;;;;5056379;28;20573;-83
2023/09/08 05:18:40;;;;;;;4.87;4.37;;;14.30;1.00;;;;;;5057176;28;20158;-83
2023/09/08 05:21:06;;;;;;;4.80;4.27;;;14.20;4.70;;;;;;5055348;28;20644;-83
2023/09/08 05:23:31;;;;;;;4.77;4.20;;;14.30;1.00;;;;;;5057086;28;20205;-83
2023/09/08 05:25:57;;;;;;;4.80;4.30;;;14.40;1.00;;;;;;5056464;28;20201;-82
2023/09/08 05:28:22;;;;;;;4.97;4.13;;;14.50;1.00;;;;;;5055772;28;20219;-83
2023/09/08 05:30:51;;;;;;;5.57;4.40;;;14.40;1.00;;;;;;5053691;28;20342;-82
2023/09/08 05:33:17;;;;;;;6.67;4.60;;;14.40;6.50;;;;;;5054533;28;20649;-83
2023/09/08 05:35:42;;;;;;;5.13;4.40;;;14.40;20.50;;;;;;5055246;28;20225;-84
2023/09/08 05:38:08;;;;;;;6.43;4.80;;;14.50;35.60;;;;;;5056467;28;20169;-83
2023/09/08 05:40:34;;;;;;;4.83;4.43;;;14.60;19.70;;;;;;5057001;28;20260;-84
2023/09/08 05:43:00;;;;;;;5.67;4.37;;;14.70;1.00;;;;;;5058196;28;20177;-83
2023/09/08 05:45:25;;;;;;;4.00;3.60;;;14.60;12.20;;;;;;5060849;28;20289;-83
2023/09/08 05:47:52;;;;;;;4.60;4.20;;;14.60;7.70;;;;;;5060902;28;20239;-84
2023/09/08 05:50:17;;;;;;;4.33;3.93;;;14.60;99.90;;;;;;5058464;28;20219;-86
2023/09/08 05:52:43;;;;;;;4.97;4.47;;;14.60;94.90;;;;;;5053219;28;20596;-86
2023/09/08 05:55:09;;;;;;;4.57;4.17;;;14.70;85.30;;;;;;5050964;28;20201;-86
2023/09/08 05:57:35;;;;;;;5.53;4.30;;;14.60;99.90;;;;;;5050624;28;20218;-85
2023/09/08 06:00:03;;;;;;;4.53;4.13;;;14.60;99.90;;;;;;5050543;28;20170;-87
2023/09/08 06:02:28;;;;;;;6.17;4.97;;;14.60;99.90;;;;;;5051930;28;20237;-87
2023/09/08 06:04:55;;;;;;;5.73;4.77;;;14.70;99.90;;;;;;5050565;28;20241;-88
2023/09/08 06:07:22;;;;;;;5.80;5.03;;;14.70;99.90;;;;;;5052536;28;20293;-88
2023/09/08 06:09:47;;;;;;;6.27;5.27;;;14.70;99.90;;;;;;5054500;28;20258;-84
2023/09/08 06:12:13;;;;;;;6.20;5.00;;;14.90;99.90;;;;;;5055552;28;20557;-84
2023/09/08 06:14:39;;;;;;;5.00;4.50;;;15.10;99.90;;;;;;5054820;28;20229;-84
2023/09/08 06:17:04;;;;;;;5.90;5.33;;;15.30;99.90;;;;;;5054160;28;20178;-85
2023/09/08 06:19:30;;;;;;;7.60;5.37;;;15.40;99.90;;;;;;5055744;28;20204;-82
2023/09/08 06:21:55;;;;;;;6.80;5.50;;;15.50;99.90;;;;;;5056296;28;20243;-84
2023/09/08 06:24:21;;;;;;;6.07;5.47;;;15.40;99.90;;;;;;5055827;28;20202;-85
2023/09/08 06:26:46;;;;;;;5.70;5.10;;;15.30;99.90;;;;;;5056730;28;20188;-85
2023/09/08 06:29:12;;;;;;;6.97;5.27;;;15.30;99.90;;;;;;5056410;28;20217;-84
2023/09/08 06:31:38;;;;;;;6.20;5.60;;;15.30;99.90;;;;;;5058804;28;20180;-85
2023/09/08 06:34:03;;;;;;;5.90;4.70;;;15.30;99.90;;;;;;5061251;28;20194;-84
2023/09/08 06:36:29;;;;;;;6.00;5.40;;;15.40;99.90;;;;;;5062168;28;20174;-86
2023/09/08 06:38:54;;;;;;;6.20;5.60;;;15.30;99.90;;;;;;5069464;28;20189;-85
2023/09/08 06:41:20;;;;;;;7.57;5.40;;;15.40;99.90;;;;;;5071281;28;20264;-83
2023/09/08 06:43:45;;;;;;;7.00;5.70;;;15.40;99.90;;;;;;5058987;28;20251;-84
2023/09/08 06:46:11;;;;;;;7.97;6.10;;;15.50;99.90;;;;;;5057772;28;20188;-84
2023/09/08 06:48:37;;;;;;;6.47;5.87;;;15.60;99.90;;;;;;5056774;28;20181;-84
2023/09/08 06:51:02;;;;;;;7.07;6.33;;;15.60;99.90;;;;;;5055507;28;20679;-86
2023/09/08 06:53:28;;;;;;;6.67;5.97;;;15.70;99.90;;;;;;5056125;28;20177;-84
2023/09/08 06:55:53;;;;;;;7.10;6.40;;;15.70;99.90;;;;;;5057707;28;20618;-83
2023/09/08 06:58:19;;;;;;;7.13;6.43;;;15.80;99.90;;;;;;5059044;28;20218;-84
2023/09/08 07:00:45;;;;;;;7.43;6.20;;;15.90;99.90;;;;;;5057084;28;20205;-82
2023/09/08 07:03:10;;;;;;;7.00;6.30;;;16.00;99.90;;;;;;5056901;28;20248;-82
2023/09/08 07:05:36;;;;;;;7.17;6.30;;;16.20;99.90;;;;;;5057678;28;20252;-84
2023/09/08 07:08:01;;;;;;;8.00;6.50;;;16.40;99.90;;;;;;5056254;28;20174;-82
2023/09/08 07:10:27;;;;;;;6.57;5.90;;;16.50;99.90;;;;;;5054900;28;20204;-83
2023/09/08 07:12:53;;;;;;;7.10;6.37;;;16.60;99.90;;;;;;5052002;28;20537;-83
2023/09/08 07:15:18;;;;;;;7.53;6.77;;;16.90;99.90;;;;;;5055109;28;20193;-83
2023/09/08 07:17:44;;;;;;;8.23;6.77;;;16.90;99.90;;;;;;5056296;28;20636;-82
2023/09/08 07:20:10;;;;;;;6.97;6.27;;;17.10;99.90;;;;;;5058497;28;20169;-83
2023/09/08 07:22:35;;;;;;;6.97;6.37;;;17.20;99.90;;;;;;5057604;28;20209;-83
2023/09/08 07:25:01;;;;;;;7.63;6.63;;;17.30;99.90;;;;;;5057271;28;20189;-83
2023/09/08 07:27:26;;;;;;;7.90;6.63;;;17.40;99.90;;;;;;5057163;28;20174;-82
2023/09/08 07:29:52;;;;;;;7.30;6.37;;;17.50;99.90;;;;;;5053373;28;20197;-82
2023/09/08 07:32:18;;;;;;;9.60;6.23;;;17.60;99.90;;;;;;5048600;28;20317;-82
2023/09/08 07:34:44;;;;;;;7.27;6.50;;;17.80;99.90;;;;;;5057192;28;20315;-83
2023/09/08 07:37:10;;;;;;;7.20;6.50;;;17.90;75.70;;;;;;5057192;28;20636;-83
2023/09/08 07:39:35;;;;;;;6.90;6.23;;;18.00;99.90;;;;;;5053227;28;20189;-81
2023/09/08 07:42:01;;;;;;;6.90;5.90;;;18.20;99.90;;;;;;5053896;28;20554;-81
2023/09/08 07:44:27;;;;;;;7.30;6.13;;;18.30;99.90;;;;;;5055284;28;20208;-81
2023/09/08 07:46:55;;;;;;;7.50;6.03;;;18.50;99.90;;;;;;5057476;28;20181;-82
2023/09/08 07:49:21;;;;;;;7.67;6.60;;;18.60;99.90;;;;;;5056667;28;20213;-82
2023/09/08 07:51:47;;;;;;;7.57;6.87;;;18.70;99.90;;;;;;5057145;28;20170;-82
2023/09/08 07:54:13;;;;;;;8.17;6.43;;;18.80;99.90;;;;;;5052357;28;20262;-82
2023/09/08 07:56:40;;;;;;;7.23;6.53;;;19.00;99.90;;;;;;5058025;28;20707;-83
2023/09/08 07:59:06;;;;;;;7.13;6.33;;;19.20;99.90;;;;;;5056701;28;20198;-82
2023/09/08 08:01:32;;;;;;;7.50;6.17;;;19.40;99.90;;;;;;5059729;28;20193;-82
2023/09/08 08:03:58;;;;;;;6.88;6.22;;;19.50;1.00;;;;;;5051843;28;20600;-82
2023/09/08 08:06:24;;;;;;;7.07;6.37;;;19.60;1.00;;;;;;5045905;28;20209;-82
2023/09/08 08:08:49;;;;;;;6.90;6.20;;;19.80;1.00;;;;;;5049363;28;20224;-82
2023/09/08 08:11:17;;;;;;;8.65;6.53;;;20.00;1.00;;;;;;5059594;28;20205;-83
2023/09/08 08:13:43;;;;;;;6.97;5.63;;;20.10;1.00;;;;;;5058492;28;20219;-82
2023/09/08 08:16:09;;;;;;;6.30;5.70;;;20.30;1.00;;;;;;5060581;28;20252;-83
2023/09/08 08:18:34;;;;;;;6.05;5.47;;;20.40;1.00;;;;;;5059144;28;20169;-82
2023/09/08 08:21:00;;;;;;;8.18;5.30;;;20.60;99.90;;;;;;5056357;28;20308;-81
2023/09/08 08:23:26;;;;;;;5.95;4.85;;;20.80;1.00;;;;;;5059218;28;20177;-82
2023/09/08 08:25:52;;;;;;;8.13;5.60;;;21.00;1.00;;;;;;5059010;28;20193;-85
2023/09/08 08:28:17;;;;;;;6.63;5.70;;;21.30;1.00;;;;;;5056547;28;20314;-82
2023/09/08 08:30:43;;;;;;;7.45;5.57;;;21.40;1.00;;;;;;5055297;28;20198;-82
2023/09/08 08:33:08;;;;;;;5.72;5.22;;;21.50;99.90;;;;;;5057106;28;20169;-83
2023/09/08 08:35:34;;;;;;;5.70;4.90;;;21.70;1.00;;;;;;5057731;28;20220;-83
2023/09/08 08:38:00;;;;;;;5.65;4.95;;;21.80;1.00;;;;;;5058603;28;20174;-83
2023/09/08 08:40:26;;;;;;;5.28;4.78;;;21.90;26.40;;;;;;5056464;28;20181;-83
2023/09/08 08:42:58;;;;;;;5.15;4.65;;;22.10;99.90;;;;;;5055931;28;20230;-83
2023/09/08 08:45:25;;;;;;;6.22;5.15;;;22.40;61.40;;;;;;5055750;28;20197;-82
2023/09/08 08:47:51;;;;;;;5.63;4.80;;;22.60;1.00;;;;;;5057357;28;20666;-84
2023/09/08 08:50:17;;;;;;;6.13;5.03;;;22.70;1.00;;;;;;5057438;28;20227;-84
2023/09/08 08:52:44;;;;;;;5.25;4.70;;;22.90;99.90;;;;;;5057623;28;20195;-82
2023/09/08 08:55:10;;;;;;;5.20;4.70;;;23.00;1.00;;;;;;5057693;28;20243;-83
2023/09/08 08:57:39;;;;;;;5.55;4.95;;;23.10;1.00;;;;;;5057471;28;20169;-84
2023/09/08 09:00:12;;;;;;;5.30;4.80;;;23.30;99.90;;;;;;5057860;28;20178;-82
2023/09/08 09:02:42;;;;;;;5.85;5.25;;;23.40;99.90;;;;;;5057087;28;20180;-84
2023/09/08 09:05:12;;;;;;;7.60;5.25;;;23.40;99.90;;;;;;5057381;28;20212;-83
2023/09/08 09:07:39;;;;;;;7.18;5.18;;;23.50;99.90;;;;;;5057642;28;20204;-83
2023/09/08 09:10:06;;;;;;;5.57;4.85;;;23.50;99.90;;;;;;5056864;28;20197;-83
2023/09/08 09:12:31;;;;;;;5.15;4.72;;;23.50;1.00;;;;;;5057516;28;20215;-83
2023/09/08 09:14:59;;;;;;;5.50;4.57;;;23.70;99.90;;;;;;5057692;28;20273;-82
2023/09/08 09:17:25;;;;;;;6.68;4.72;;;23.90;99.90;;;;;;5056854;28;20207;-83
2023/09/08 09:19:51;;;;;;;5.15;4.60;;;24.00;99.90;;;;;;5057625;28;20166;-81
2023/09/08 09:22:21;;;;;;;5.30;4.40;;;24.10;99.90;;;;;;5060304;28;20190;-81
2023/09/08 09:24:48;;;;;;;4.93;4.43;;;24.30;99.90;;;;;;5062295;28;20192;-81
2023/09/08 09:27:13;;;;;;;5.25;4.15;;;24.50;22.90;;;;;;5057326;28;20207;-81
2023/09/08 09:29:47;;;;;;;5.38;4.43;;;24.70;1.00;;;;;;5057983;28;20201;-81
2023/09/08 09:32:13;;;;;;;5.32;4.45;;;24.90;99.90;;;;;;5059111;28;20173;-81
2023/09/08 09:34:50;;;;;;;4.95;4.45;;;25.00;99.90;;;;;;5058804;28;20208;-81
2023/09/08 09:37:16;;;;;;;4.38;4.00;;;25.10;99.90;;;;;;5058552;28;20195;-81
2023/09/08 09:39:42;;;;;;;5.78;4.43;;;25.30;99.90;;;;;;5060350;28;20732;-81
2023/09/08 09:42:07;;;;;;;4.93;4.43;;;25.50;99.90;;;;;;5059829;28;20272;-82
2023/09/08 09:44:33;;;;;;;6.30;4.35;;;25.70;99.90;;;;;;5057549;28;20189;-84
2023/09/08 09:47:00;;;;;;;4.72;4.32;;;25.90;99.90;;;;;;5056899;28;20174;-82
2023/09/08 09:49:31;;;;;;;4.47;4.07;;;26.00;1.00;;;;;;5060658;28;20201;-81
2023/09/08 09:51:58;;;;;;;4.65;4.25;;;26.10;1.00;;;;;;5058499;28;20170;-82
2023/09/08 09:54:23;;;;;;;4.43;4.03;;;26.20;1.00;;;;;;5058386;28;20194;-82
2023/09/08 09:56:51;;;;;;;4.70;4.30;;;26.20;99.90;;;;;;5059249;28;20237;-82
2023/09/08 09:59:17;;;;;;;4.40;4.00;;;26.20;1.00;;;;;;5060017;28;20169;-81
2023/09/08 10:01:43;;;;;;;5.90;4.03;;;26.40;1.00;;;;;;5056999;28;20182;-81
2023/09/08 10:06:51;;;;;;;6.07;4.07;;;26.90;99.90;;;;;;5069548;28;20215;-84
2023/09/08 10:09:19;;;;;;;4.95;4.10;;;27.10;99.90;;;;;;5071319;28;20635;-83
2023/09/08 10:11:47;;;;;;;4.93;3.90;;;27.20;99.90;;;;;;5072326;28;20180;-82
2023/09/08 10:14:14;;;;;;;4.50;4.10;;;27.30;99.90;;;;;;5074496;28;20169;-83
2023/09/08 10:16:43;;;;;;;5.70;4.15;;;27.40;99.90;;;;;;5055575;28;20180;-83
2023/09/08 10:19:09;;;;;;;6.20;4.03;;;27.60;99.90;;;;;;5055244;28;20170;-84
2023/09/08 10:21:41;;;;;;;4.65;3.78;;;27.60;1.00;;;;;;5054504;28;20182;-84
2023/09/08 10:24:23;;;;;;;4.13;3.72;;;27.50;1.00;;;;;;5059114;28;20686;-84
2023/09/08 10:27:24;;;;;;;4.30;3.90;;;27.50;38.50;;;;;;5059794;28;20169;-83
2023/09/08 10:29:50;;;;;;;4.60;3.83;;;27.50;18.60;;;;;;5038771;28;20220;-83
2023/09/08 10:32:17;;;;;;;4.72;4.00;;;27.70;1.00;;;;;;5056840;28;20256;-83
2023/09/08 10:34:44;;;;;;;4.35;3.95;;;27.60;1.00;;;;;;5057559;28;20239;-82
2023/09/08 10:37:29;;;;;;;4.72;3.88;;;27.70;1.00;;;;;;5056700;28;20520;-82
2023/09/08 10:39:55;;;;;;;4.28;3.83;;;27.90;1.00;;;;;;5055875;28;20181;-82
2023/09/08 10:42:27;;;;;;;4.30;3.67;;;28.00;1.00;;;;;;5058163;28;20178;-82
2023/09/08 10:44:57;;;;;;;4.90;3.90;;;28.20;1.00;;;;;;5056389;28;20753;-81
2023/09/08 10:47:33;;;;;;;5.00;3.63;;;28.20;1.00;;;;;;5057732;28;20184;-82
2023/09/08 10:50:00;;;;;;;4.10;3.78;;;28.10;1.00;;;;;;5056347;28;20247;-82
2023/09/08 10:52:25;;;;;;;3.88;3.47;;;28.30;1.00;;;;;;5057171;28;20178;-82
2023/09/08 10:54:53;;;;;;;4.30;3.90;;;28.20;1.00;;;;;;5058142;28;20259;-82
2023/09/08 10:57:22;;;;;;;4.68;4.18;;;28.30;1.00;;;;;;5058362;28;20253;-82
2023/09/08 10:59:55;;;;;;;4.53;3.65;;;28.40;1.00;;;;;;5056457;28;20228;-81
2023/09/08 11:02:55;;;;;;;6.18;3.80;;;28.30;1.00;;;;;;5056670;28;20232;-82
2023/09/08 11:05:21;;;;;;;4.22;3.80;;;28.40;99.90;;;;;;5023998;28;20221;-82
2023/09/08 11:07:52;;;;;;;4.78;3.60;;;28.60;1.00;;;;;;5056451;28;20242;-82
2023/09/08 11:10:18;;;;;;;5.07;3.63;;;28.70;1.00;;;;;;5055753;28;20209;-81
2023/09/08 11:12:43;;;;;;;4.53;3.60;;;28.60;1.00;;;;;;5057965;28;20166;-82
2023/09/08 11:15:09;;;;;;;4.97;3.45;;;28.70;1.00;;;;;;5055870;28;20284;-82
2023/09/08 11:17:39;;;;;;;4.57;3.88;;;29.00;1.00;;;;;;5057264;28;20295;-82
2023/09/08 11:20:09;;;;;;;6.22;3.95;;;29.30;1.00;;;;;;5056246;28;20170;-82
2023/09/08 11:22:35;;;;;;;3.97;3.65;;;29.40;1.00;;;;;;5056793;28;20228;-81
2023/09/08 11:25:04;;;;;;;4.32;3.63;;;29.50;99.90;;;;;;5055951;28;20205;-82
2023/09/08 11:27:30;;;;;;;5.55;3.85;;;29.70;99.90;;;;;;5058372;28;20185;-82
2023/09/08 11:29:57;;;;;;;4.85;3.90;;;29.90;99.90;;;;;;5056994;28;20202;-81
2023/09/08 11:32:23;;;;;;;4.93;3.65;;;29.90;99.90;;;;;;5056797;28;20598;-82
2023/09/08 11:34:48;;;;;;;3.95;3.58;;;29.80;99.90;;;;;;5056079;28;20190;-82
2023/09/08 11:37:17;;;;;;;4.68;3.65;;;29.80;99.90;;;;;;5056376;28;20170;-81
2023/09/08 11:39:47;;;;;;;4.00;3.60;;;30.00;99.90;;;;;;5057047;28;20173;-81
2023/09/08 11:42:14;;;;;;;5.80;3.67;;;30.00;99.90;;;;;;5057510;28;20173;-82
2023/09/08 11:44:41;;;;;;;4.40;3.70;;;30.10;99.90;;;;;;5055787;28;20221;-85
2023/09/08 11:47:09;;;;;;;4.35;3.40;;;30.20;99.90;;;;;;5056927;28;20200;-80
2023/09/08 11:49:39;;;;;;;4.95;3.60;;;30.40;99.90;;;;;;5054977;28;20169;-80
2023/09/08 11:52:05;;;;;;;4.30;3.60;;;30.70;99.90;;;;;;5056492;28;20218;-81
2023/09/08 11:54:41;;;;;;;3.92;3.63;;;30.90;99.90;;;;;;5056437;28;20194;-80
2023/09/08 11:57:08;;;;;;;3.80;3.50;;;30.90;99.90;;;;;;5056373;28;20639;-81
2023/09/08 11:59:34;;;;;;;4.07;3.30;;;31.10;99.90;;;;;;5055181;28;20177;-81
2023/09/08 12:02:01;;;;;;;5.78;3.30;;;31.20;99.90;;;;;;5054843;28;20197;-81
2023/09/08 12:04:26;;;;;;;4.10;3.70;;;31.30;99.90;;;;;;5055053;28;20180;-81
2023/09/08 12:06:55;;;;;;;5.00;3.22;;;31.40;99.90;;;;;;5058678;28;20276;-81
2023/09/08 12:09:21;;;;;;;3.55;3.25;;;31.50;99.90;;;;;;5058012;28;20169;-81
2023/09/08 12:11:47;;;;;;;4.47;3.17;;;31.70;99.90;;;;;;5075573;28;20254;-81
2023/09/08 12:14:14;;;;;;;3.45;3.17;;;31.90;99.90;;;;;;5056806;28;20169;-80
2023/09/08 12:16:40;;;;;;;3.42;3.13;;;32.20;99.90;;;;;;5077122;28;20165;-81
2023/09/08 12:19:07;;;;;;;3.35;3.05;;;32.10;99.90;;;;;;5078752;28;20180;-80
2023/09/08 12:21:53;;;;;;;4.57;3.40;;;32.20;99.90;;;;;;5075570;28;20180;-80
2023/09/08 12:24:19;;;;;;;3.40;3.10;;;32.20;99.90;;;;;;5076453;28;20200;-80
2023/09/08 12:26:44;;;;;;;4.57;3.25;;;32.20;99.90;;;;;;5058387;28;20572;-81
2023/09/08 12:29:13;;;;;;;3.53;3.22;;;31.80;99.90;;;;;;5058728;28;20169;-80
2023/09/08 12:31:39;;;;;;;3.33;3.03;;;31.90;99.90;;;;;;5075436;28;20558;-80
2023/09/08 12:34:05;;;;;;;3.50;3.20;;;31.90;99.90;;;;;;5076387;28;20184;-80
2023/09/08 12:36:30;;;;;;;3.28;2.95;;;32.00;99.90;;;;;;5057083;28;20287;-80
2023/09/08 12:38:56;;;;;;;4.40;3.00;;;32.20;99.90;;;;;;5058291;28;20705;-79
2023/09/08 12:41:21;;;;;;;4.10;3.03;;;32.40;99.90;;;;;;5057659;28;20258;-80
2023/09/08 12:43:47;;;;;;;3.33;3.03;;;32.60;99.90;;;;;;5075769;28;20193;-81
2023/09/08 12:46:12;;;;;;;4.82;3.50;;;32.80;99.90;;;;;;5076042;28;20203;-81
2023/09/08 12:48:38;;;;;;;4.55;3.22;;;32.70;98.70;;;;;;5057770;28;20205;-80
2023/09/08 12:51:04;;;;;;;5.00;3.10;;;32.70;90.10;;;;;;5057755;28;20611;-80